SJT weather

San Angelo Regional Mathis Field
San Angelo, Texas, United States

Public forecast

Using degrees Fahrenheit for public forecast. Weather courtesy of forecast.io.

METAR (pilot weather report)

Retrieved 2019/04/25 20:51 UTC (40 minutes ago):

KSJT 252051Z 27005KT 10SM CLR 29/12 A2994 RMK AO2 SLP121 T02940117 58001

TAF (pilot weather forecast)

Retrieved 2019/04/25 18:22 UTC (3 hours ago):

TAF KSJT 251720Z 2518/2618 30011KT P6SM SKC FM252300 35011KT P6SM SKC FM260100 04006KT P6SM SKC FM261500 08011KT P6SM SKC